Time;durP1;ratioP1;P1;durP2;ratioP2;P2;SDS_P1;SDS_P2;PMS_P1;PMS_P2;Temp;Humidity;BMP_temperature;BMP_pressure;BME280_temperature;BME280_humidity;BME280_pressure;Samples;Min_cycle;Max_cycle;Signal;HPM_P1;HPM_P2
2022/06/07 00:00:50;;;;;;;12.10;4.60;;;;;;;16.81;76.13;100153.75;106657;1272;25924;-77
2022/06/07 00:03:22;;;;;;;10.30;3.80;;;;;;;16.80;76.15;100153.96;107134;1272;22580;-78
2022/06/07 00:05:53;;;;;;;13.20;4.80;;;;;;;16.78;76.42;100159.77;107079;1271;22556;-80
2022/06/07 00:08:25;;;;;;;15.30;4.60;;;;;;;16.77;76.48;100158.40;107022;1271;22671;-79
2022/06/07 00:10:57;;;;;;;9.80;4.20;;;;;;;16.77;76.54;100155.52;106648;1271;25371;-78
2022/06/07 00:13:29;;;;;;;10.40;4.40;;;;;;;16.78;76.83;100147.16;106676;1271;22892;-77
2022/06/07 00:16:02;;;;;;;13.70;6.00;;;;;;;16.77;76.96;100145.58;106816;1271;22712;-78
2022/06/07 00:18:34;;;;;;;11.90;4.70;;;;;;;16.76;77.26;100138.00;106666;1271;22687;-79
2022/06/07 00:21:06;;;;;;;13.80;6.30;;;;;;;16.78;77.11;100135.88;106694;1271;24234;-78
2022/06/07 00:23:38;;;;;;;14.00;5.80;;;;;;;16.78;77.52;100130.90;106766;1271;22745;-77
2022/06/07 00:26:11;;;;;;;15.30;6.20;;;;;;;16.79;77.66;100132.13;106726;1273;22551;-78
2022/06/07 00:28:43;;;;;;;15.20;5.80;;;;;;;16.79;77.73;100127.73;106679;1271;22827;-78
2022/06/07 00:31:15;;;;;;;14.40;5.90;;;;;;;16.78;77.95;100126.77;106696;1271;22528;-77
2022/06/07 00:33:47;;;;;;;14.50;5.90;;;;;;;16.77;78.10;100124.98;107065;1271;22536;-79
2022/06/07 00:36:19;;;;;;;14.70;6.10;;;;;;;16.77;78.34;100127.95;107134;1271;22611;-78
2022/06/07 00:38:51;;;;;;;16.70;6.00;;;;;;;16.74;78.42;100128.27;106590;1271;25624;-77
2022/06/07 00:41:22;;;;;;;14.90;5.90;;;;;;;16.71;78.38;100131.48;106683;1271;22795;-78
2022/06/07 00:44:32;;;;;;;13.10;6.00;;;;;;;16.68;78.51;100127.30;107136;1264;22528;-76
2022/06/07 00:47:09;;;;;;;12.00;4.60;;;;;;;16.61;78.29;100125.52;106601;1271;22700;-78
2022/06/07 00:49:44;;;;;;;13.40;5.80;;;;;;;16.49;78.32;100131.01;106581;1271;22618;-78
2022/06/07 00:52:17;;;;;;;14.40;6.50;;;;;;;16.40;78.38;100129.67;106564;1271;23167;-79
2022/06/07 00:54:49;;;;;;;14.00;6.10;;;;;;;16.38;78.48;100126.66;106502;1271;24193;-78
2022/06/07 00:57:20;;;;;;;16.70;7.00;;;;;;;16.34;78.47;100119.27;106784;1271;22564;-78
2022/06/07 00:59:52;;;;;;;15.60;6.70;;;;;;;16.30;78.62;100121.64;106447;1271;22545;-77
2022/06/07 01:02:24;;;;;;;13.20;5.70;;;;;;;16.27;78.76;100112.80;106621;1273;24232;-78
2022/06/07 01:04:57;;;;;;;11.30;4.90;;;;;;;16.27;78.43;100109.27;106571;1273;24889;-77
2022/06/07 01:13:07;;;;;;;15.30;5.90;;;;;;;16.22;78.89;100109.61;106469;1273;24281;-77
2022/06/07 01:15:39;;;;;;;19.20;7.70;;;;;;;16.20;79.29;100108.64;106547;1271;24255;-77
2022/06/07 01:18:10;;;;;;;16.40;6.80;;;;;;;16.18;79.11;100106.34;106317;1271;22670;-77
2022/06/07 01:20:41;;;;;;;12.90;5.90;;;;;;;16.16;79.36;100099.95;106556;1273;25412;-77
2022/06/07 01:23:13;;;;;;;17.60;6.90;;;;;;;16.17;79.36;100099.90;106559;1273;22540;-77
2022/06/07 01:25:44;;;;;;;18.90;7.20;;;;;;;16.17;79.51;100104.14;106597;1271;25501;-78
2022/06/07 01:28:16;;;;;;;17.40;7.00;;;;;;;16.15;79.47;100115.79;106672;1271;22535;-77
2022/06/07 01:30:47;;;;;;;18.00;7.30;;;;;;;16.13;79.60;100112.73;106606;1272;22608;-79
2022/06/07 01:33:18;;;;;;;13.00;6.20;;;;;;;16.14;79.93;100103.55;106563;1273;22539;-77
2022/06/07 01:35:49;;;;;;;17.50;8.00;;;;;;;16.14;80.10;100105.80;106597;1271;22540;-77
2022/06/07 01:38:21;;;;;;;15.00;7.00;;;;;;;16.13;79.94;100100.70;106627;1273;22613;-77
2022/06/07 01:43:43;;;;;;;15.80;7.00;;;;;;;16.09;80.05;100100.86;106586;1271;25252;-78
2022/06/07 01:46:14;;;;;;;17.20;7.20;;;;;;;16.09;79.98;100100.77;106597;1271;23960;-77
2022/06/07 01:48:48;;;;;;;14.90;5.90;;;;;;;16.08;79.86;100101.39;106593;1271;22473;-78
2022/06/07 01:51:20;;;;;;;13.30;6.10;;;;;;;16.06;79.88;100101.65;106637;1271;22568;-78
2022/06/07 01:53:52;;;;;;;17.30;6.30;;;;;;;16.02;79.88;100102.09;106581;1271;22527;-78
2022/06/07 01:56:23;;;;;;;14.40;5.80;;;;;;;15.99;79.77;100102.67;106689;1271;22538;-78
2022/06/07 01:58:56;;;;;;;11.90;5.40;;;;;;;15.95;79.64;100101.45;106573;1271;25274;-77
2022/06/07 02:01:27;;;;;;;13.00;5.40;;;;;;;15.92;79.87;100101.02;106748;1271;25381;-77
2022/06/07 02:03:59;;;;;;;10.90;4.00;;;;;;;15.90;79.97;100098.15;106598;1271;22547;-77
2022/06/07 02:06:31;;;;;;;11.30;4.40;;;;;;;15.87;79.73;100090.84;106581;1273;25284;-78
2022/06/07 02:09:02;;;;;;;11.70;4.60;;;;;;;15.86;79.38;100088.86;106614;1271;22516;-78
2022/06/07 02:11:34;;;;;;;15.50;5.10;;;;;;;15.83;79.28;100085.23;106522;1273;25839;-78
2022/06/07 02:14:06;;;;;;;14.10;6.20;;;;;;;15.77;79.28;100086.90;106549;1273;24266;-78
2022/06/07 02:16:39;;;;;;;13.20;5.40;;;;;;;15.73;79.45;100087.17;106636;1272;23863;-78
2022/06/07 02:19:10;;;;;;;12.80;4.90;;;;;;;15.68;79.35;100085.81;106551;1271;22528;-77
2022/06/07 02:21:42;;;;;;;13.40;5.20;;;;;;;15.64;79.44;100084.55;106587;1271;25871;-78
2022/06/07 02:24:14;;;;;;;12.40;4.70;;;;;;;15.59;79.67;100087.02;106627;1272;25261;-78
2022/06/07 02:26:48;;;;;;;12.30;4.20;;;;;;;15.53;79.75;100087.82;106683;1273;22583;-78
2022/06/07 02:29:25;;;;;;;8.90;3.10;;;;;;;15.48;80.20;100086.82;106748;1273;25382;-78
2022/06/07 02:32:02;;;;;;;7.30;1.90;;;;;;;15.44;80.43;100088.41;106522;1271;25370;-77
2022/06/07 02:34:34;;;;;;;6.40;1.80;;;;;;;15.39;80.36;100086.40;106662;1271;22608;-77
2022/06/07 02:37:07;;;;;;;7.60;2.20;;;;;;;15.36;80.25;100086.55;106786;1271;24246;-79
2022/06/07 02:39:39;;;;;;;8.00;2.30;;;;;;;15.32;80.46;100084.33;106599;1273;24324;-78
2022/06/07 02:42:14;;;;;;;6.90;2.20;;;;;;;15.29;80.49;100078.40;106630;1272;22696;-78
2022/06/07 02:44:46;;;;;;;9.80;3.20;;;;;;;15.25;80.43;100072.38;106533;1273;25393;-78
2022/06/07 02:47:18;;;;;;;9.10;3.40;;;;;;;15.22;80.50;100071.02;106553;1273;24895;-78
2022/06/07 02:49:52;;;;;;;12.50;5.00;;;;;;;15.21;80.56;100072.80;106589;1273;24339;-78
2022/06/07 02:52:24;;;;;;;12.40;4.70;;;;;;;15.18;80.69;100076.48;106680;1271;24265;-77
2022/06/07 02:54:55;;;;;;;12.80;5.20;;;;;;;15.15;80.62;100080.58;106575;1273;22859;-77
2022/06/07 02:57:27;;;;;;;11.60;4.70;;;;;;;15.11;80.53;100078.40;106606;1273;22544;-78
2022/06/07 02:59:58;;;;;;;11.50;4.50;;;;;;;15.06;80.38;100075.44;106588;1271;25252;-77
2022/06/07 03:02:30;;;;;;;10.50;3.90;;;;;;;15.06;80.32;100076.96;106546;1273;24488;-78
2022/06/07 03:05:01;;;;;;;9.80;3.70;;;;;;;15.04;80.09;100072.88;106538;1273;25262;-78
2022/06/07 03:07:32;;;;;;;11.80;3.80;;;;;;;15.02;80.13;100070.28;106589;1273;22529;-78
2022/06/07 03:10:04;;;;;;;10.50;3.20;;;;;;;15.00;80.43;100066.15;106656;1271;22529;-78
2022/06/07 03:12:36;;;;;;;11.60;3.70;;;;;;;14.98;80.23;100063.44;106620;1273;22531;-78
2022/06/07 03:15:10;;;;;;;11.60;4.70;;;;;;;14.94;80.42;100061.71;106484;1273;22553;-78
2022/06/07 03:17:43;;;;;;;10.10;3.40;;;;;;;14.94;80.60;100059.21;106564;1273;22541;-77
2022/06/07 03:20:15;;;;;;;15.50;6.50;;;;;;;14.91;80.46;100064.27;106702;1273;22609;-77
2022/06/07 03:22:47;;;;;;;17.40;7.60;;;;;;;14.91;81.68;100062.33;106786;1271;24280;-77
2022/06/07 03:25:20;;;;;;;16.40;8.00;;;;;;;14.90;82.59;100065.85;106638;1273;22548;-78
2022/06/07 03:27:52;;;;;;;15.00;6.70;;;;;;;14.91;82.49;100064.31;106586;1273;22528;-78
2022/06/07 03:30:24;;;;;;;17.20;7.90;;;;;;;14.90;81.66;100067.08;106586;1273;22559;-78
2022/06/07 03:32:55;;;;;;;15.70;7.20;;;;;;;14.89;81.79;100075.46;106556;1273;22862;-78
2022/06/07 03:35:27;;;;;;;16.20;6.90;;;;;;;14.89;81.45;100076.59;106580;1273;23937;-78
2022/06/07 03:37:59;;;;;;;14.10;6.10;;;;;;;14.88;81.53;100071.00;106855;1273;22724;-79
2022/06/07 03:40:45;;;;;;;15.20;6.30;;;;;;;14.88;81.31;100074.34;107011;1273;22987;-80
2022/06/07 03:43:17;;;;;;;15.80;6.30;;;;;;;14.87;81.33;100074.30;106840;1272;23354;-79
2022/06/07 03:45:48;;;;;;;13.00;5.80;;;;;;;14.87;81.52;100070.88;106994;1270;22555;-79
2022/06/07 03:48:20;;;;;;;12.90;5.50;;;;;;;14.87;81.60;100075.30;107202;1270;23068;-80
2022/06/07 03:50:53;;;;;;;13.20;5.70;;;;;;;14.88;81.86;100075.11;107065;1270;22565;-79
2022/06/07 03:53:24;;;;;;;13.80;5.80;;;;;;;14.91;81.99;100076.48;107090;1270;26507;-80
2022/06/07 03:55:57;;;;;;;13.00;6.10;;;;;;;14.94;81.69;100076.89;107302;1271;25611;-80
2022/06/07 03:58:28;;;;;;;11.50;5.30;;;;;;;14.96;81.87;100075.56;107416;1269;22599;-79
2022/06/07 04:01:02;;;;;;;13.00;5.70;;;;;;;14.97;82.18;100081.64;107233;1270;22530;-80
2022/06/07 04:03:34;;;;;;;13.10;5.50;;;;;;;15.02;82.24;100082.85;107172;1270;22572;-79
2022/06/07 04:06:06;;;;;;;13.70;5.30;;;;;;;15.05;82.14;100076.15;107546;1270;22701;-80
2022/06/07 04:08:37;;;;;;;15.50;7.20;;;;;;;15.10;82.55;100074.30;107575;1270;22695;-80
2022/06/07 04:11:14;;;;;;;19.80;9.80;;;;;;;15.15;83.59;100073.27;107578;1270;24150;-80
2022/06/07 04:13:45;;;;;;;19.60;11.60;;;;;;;15.21;84.31;100072.49;107719;1270;22588;-80
2022/06/07 04:16:22;;;;;;;20.50;12.40;;;;;;;15.25;84.42;100071.35;107433;1270;22525;-79
2022/06/07 04:18:55;;;;;;;21.10;12.10;;;;;;;15.32;84.21;100071.75;107267;1270;27060;-79
2022/06/07 04:21:28;;;;;;;20.30;11.20;;;;;;;15.37;84.11;100074.84;107253;1270;25404;-80
2022/06/07 04:24:00;;;;;;;21.70;12.30;;;;;;;15.43;84.38;100083.89;107037;1270;22548;-79
2022/06/07 04:26:32;;;;;;;23.00;12.90;;;;;;;15.47;84.84;100082.92;107093;1270;23787;-80
2022/06/07 04:29:03;;;;;;;22.70;13.00;;;;;;;15.53;84.91;100081.69;107319;1270;26564;-78
2022/06/07 04:31:34;;;;;;;20.50;11.30;;;;;;;15.61;85.19;100076.23;107242;1270;24203;-80
2022/06/07 04:34:08;;;;;;;20.80;10.80;;;;;;;15.70;85.04;100069.98;107621;1270;22592;-80
2022/06/07 04:36:40;;;;;;;23.30;11.90;;;;;;;15.79;85.02;100069.45;107687;1270;22540;-80
2022/06/07 04:39:11;;;;;;;20.20;11.40;;;;;;;15.90;85.21;100067.55;107668;1271;24254;-79
2022/06/07 04:41:43;;;;;;;22.10;13.10;;;;;;;16.02;85.54;100070.04;107669;1271;22851;-80
2022/06/07 04:44:14;;;;;;;20.90;12.70;;;;;;;16.11;85.71;100069.06;107353;1271;22994;-79
2022/06/07 04:46:46;;;;;;;25.20;14.00;;;;;;;16.20;85.92;100068.60;107315;1271;22538;-80
2022/06/07 04:49:18;;;;;;;24.80;13.90;;;;;;;16.30;86.10;100066.27;107676;1270;22472;-78
2022/06/07 04:51:49;;;;;;;22.00;12.00;;;;;;;16.39;86.20;100063.70;107185;1270;25523;-79
2022/06/07 04:54:22;;;;;;;21.40;13.10;;;;;;;16.51;86.36;100060.80;107303;1271;25416;-79
2022/06/07 04:56:55;;;;;;;17.40;9.50;;;;;;;16.66;86.78;100061.56;107329;1270;26525;-79
2022/06/07 04:59:26;;;;;;;16.10;7.50;;;;;;;16.79;86.82;100066.46;107388;1271;24285;-80
2022/06/07 05:01:58;;;;;;;14.80;6.80;;;;;;;16.91;86.19;100075.70;107358;1270;22594;-78
2022/06/07 05:04:30;;;;;;;13.30;5.90;;;;;;;17.01;86.00;100077.10;107396;1270;22624;-79
2022/06/07 05:07:01;;;;;;;12.00;5.20;;;;;;;17.09;85.72;100085.41;107411;1271;23062;-78
2022/06/07 05:09:33;;;;;;;9.60;3.70;;;;;;;17.18;85.31;100091.33;107344;1271;24204;-78
2022/06/07 05:12:05;;;;;;;9.80;4.50;;;;;;;17.26;84.78;100087.45;107402;1271;23601;-78
2022/06/07 05:14:38;;;;;;;11.30;4.50;;;;;;;17.35;84.92;100085.65;107287;1270;25454;-79
2022/06/07 05:17:09;;;;;;;10.90;4.50;;;;;;;17.46;85.01;100075.64;107357;1271;23411;-77
2022/06/07 05:19:41;;;;;;;12.00;4.50;;;;;;;17.56;84.44;100073.18;107302;1271;22530;-78
2022/06/07 05:22:13;;;;;;;9.90;4.60;;;;;;;17.65;84.17;100071.58;107211;1271;23947;-78
2022/06/07 05:24:45;;;;;;;7.70;3.10;;;;;;;17.76;83.82;100072.48;107364;1270;23569;-79
2022/06/07 05:27:20;;;;;;;9.70;3.60;;;;;;;17.88;83.30;100074.11;107314;1270;22604;-80
2022/06/07 05:29:53;;;;;;;10.20;3.10;;;;;;;17.97;82.95;100072.95;107311;1270;23294;-78
2022/06/07 05:32:26;;;;;;;10.40;3.10;;;;;;;18.07;82.51;100072.58;107345;1270;22528;-78
2022/06/07 05:34:58;;;;;;;8.40;2.60;;;;;;;18.14;82.09;100074.42;107261;1271;23086;-78
2022/06/07 05:37:29;;;;;;;8.30;2.70;;;;;;;18.22;82.33;100074.96;107976;1271;22458;-79
2022/06/07 05:40:02;;;;;;;8.30;2.80;;;;;;;18.36;82.22;100076.44;108066;1271;22778;-79
2022/06/07 05:42:33;;;;;;;7.80;2.90;;;;;;;18.47;81.88;100072.67;107683;1271;23361;-79
2022/06/07 05:45:08;;;;;;;7.30;3.00;;;;;;;18.58;81.49;100072.07;107402;1271;22946;-79
2022/06/07 05:47:41;;;;;;;7.70;2.90;;;;;;;18.68;81.17;100073.09;107521;1270;22558;-79
2022/06/07 05:50:12;;;;;;;10.60;3.80;;;;;;;18.78;81.17;100073.65;107406;1271;22538;-78
2022/06/07 05:52:43;;;;;;;8.20;3.00;;;;;;;18.89;80.85;100069.77;107325;1270;23012;-78
2022/06/07 05:55:15;;;;;;;8.30;2.50;;;;;;;18.99;80.64;100070.77;107722;1270;22578;-79
2022/06/07 05:57:50;;;;;;;8.80;2.60;;;;;;;19.09;80.22;100070.58;107615;1271;22787;-79
2022/06/07 06:00:24;;;;;;;10.30;3.20;;;;;;;19.21;80.53;100068.99;107755;1271;25659;-79
2022/06/07 06:02:56;;;;;;;8.50;2.90;;;;;;;19.42;80.36;100069.67;107660;1270;22872;-80
2022/06/07 06:05:28;;;;;;;9.20;2.30;;;;;;;19.55;79.74;100068.44;107705;1270;22623;-81
2022/06/07 06:10:47;;;;;;;7.00;1.80;;;;;;;19.80;78.86;100065.23;107272;1271;22613;-79
2022/06/07 06:13:19;;;;;;;6.60;2.30;;;;;;;19.89;78.87;100063.80;107620;1271;22588;-78
2022/06/07 06:16:00;;;;;;;5.30;1.90;;;;;;;20.03;78.20;100068.63;107376;1271;22574;-78
2022/06/07 06:18:31;;;;;;;8.50;2.70;;;;;;;20.15;77.10;100070.46;107224;1271;23818;-79
2022/06/07 06:21:03;;;;;;;7.60;1.70;;;;;;;20.29;76.87;100075.52;107177;1271;24267;-77
2022/06/07 06:23:35;;;;;;;5.50;1.80;;;;;;;20.43;76.47;100071.06;107256;1271;24223;-78
2022/06/07 06:26:10;;;;;;;6.90;1.70;;;;;;;20.55;75.95;100074.20;107360;1269;26577;-78
2022/06/07 06:28:41;;;;;;;6.50;1.90;;;;;;;20.63;75.06;100075.91;107286;1271;22589;-79
2022/06/07 06:31:14;;;;;;;5.30;1.50;;;;;;;20.75;75.26;100074.80;107283;1271;22526;-78
2022/06/07 06:33:48;;;;;;;6.60;1.60;;;;;;;20.90;74.38;100071.54;107412;1271;22735;-78
2022/06/07 06:36:21;;;;;;;4.90;1.30;;;;;;;21.02;74.46;100071.23;107718;1270;22562;-78
2022/06/07 06:38:52;;;;;;;3.90;1.20;;;;;;;21.11;73.24;100074.12;107225;1268;22784;-78
2022/06/07 06:41:26;;;;;;;6.50;1.20;;;;;;;21.14;72.43;100074.29;107140;1271;25593;-78
2022/06/07 06:44:01;;;;;;;5.60;1.30;;;;;;;21.18;71.71;100076.19;107317;1270;25258;-78
2022/06/07 06:46:34;;;;;;;6.50;1.40;;;;;;;21.18;71.07;100084.51;107440;1271;22560;-79
2022/06/07 06:49:06;;;;;;;4.90;1.20;;;;;;;21.15;70.55;100087.16;107239;1271;23950;-79
2022/06/07 06:51:37;;;;;;;5.80;1.10;;;;;;;21.13;70.74;100085.59;107165;1270;22541;-79
2022/06/07 06:54:11;;;;;;;4.70;1.30;;;;;;;21.22;70.92;100092.90;107139;1270;25728;-79
2022/06/07 06:56:42;;;;;;;5.00;1.20;;;;;;;21.31;70.63;100087.25;107177;1271;22603;-79
2022/06/07 06:59:15;;;;;;;4.10;1.30;;;;;;;21.35;69.89;100089.20;107274;1271;22575;-79
2022/06/07 07:01:46;;;;;;;6.10;1.60;;;;;;;21.33;69.70;100084.90;107223;1270;22538;-79
2022/06/07 07:04:18;;;;;;;4.10;1.40;;;;;;;21.34;69.72;100086.58;107179;1270;22758;-80
2022/06/07 07:06:51;;;;;;;7.80;1.60;;;;;;;21.37;69.58;100083.09;107148;1270;22533;-79
2022/06/07 07:09:26;;;;;;;6.40;1.20;;;;;;;21.38;69.62;100082.90;107242;1271;22569;-79
2022/06/07 07:11:58;;;;;;;8.70;1.40;;;;;;;21.39;69.09;100084.54;107230;1270;22687;-80
2022/06/07 07:14:29;;;;;;;6.00;1.20;;;;;;;21.44;69.21;100089.41;107158;1271;24237;-80
2022/06/07 07:17:00;;;;;;;6.50;1.30;;;;;;;21.48;68.57;100092.23;107216;1270;22558;-79
2022/06/07 07:19:35;;;;;;;4.00;1.20;;;;;;;21.48;68.15;100091.97;107253;1270;23366;-79
2022/06/07 07:22:08;;;;;;;5.20;1.50;;;;;;;21.49;68.05;100090.08;107167;1270;25253;-79
2022/06/07 07:24:41;;;;;;;9.60;1.30;;;;;;;21.54;67.87;100092.05;107206;1271;25395;-79
2022/06/07 07:27:12;;;;;;;6.50;1.10;;;;;;;21.59;67.76;100090.64;107291;1271;22529;-79
2022/06/07 07:29:43;;;;;;;6.10;1.30;;;;;;;21.65;67.75;100088.70;107246;1271;22573;-79
2022/06/07 07:32:17;;;;;;;6.40;1.60;;;;;;;21.70;67.47;100083.66;107209;1270;23921;-79
2022/06/07 07:34:48;;;;;;;8.60;1.60;;;;;;;21.76;67.06;100083.20;107216;1271;22550;-79
2022/06/07 07:37:20;;;;;;;5.20;1.40;;;;;;;21.81;67.06;100087.59;107155;1270;22591;-79
2022/06/07 07:39:51;;;;;;;6.00;1.80;;;;;;;21.88;66.73;100094.95;107098;1270;22547;-79
2022/06/07 07:42:23;;;;;;;4.90;1.40;;;;;;;21.94;66.40;100089.60;107093;1271;22517;-79
2022/06/07 07:44:55;;;;;;;5.10;1.40;;;;;;;22.04;66.00;100089.83;107176;1271;23970;-79
2022/06/07 07:47:30;;;;;;;7.10;1.30;;;;;;;22.10;65.35;100086.14;107178;1270;22701;-78
2022/06/07 07:50:02;;;;;;;4.90;1.40;;;;;;;22.10;64.23;100086.48;107193;1270;25258;-80
2022/06/07 07:52:38;;;;;;;6.50;1.10;;;;;;;22.08;64.06;100086.55;107195;1271;24942;-80
2022/06/07 07:55:14;;;;;;;5.10;1.00;;;;;;;22.17;64.43;100081.30;107462;1271;22768;-80
2022/06/07 07:57:46;;;;;;;6.10;1.10;;;;;;;22.24;63.28;100085.73;107595;1270;24897;-79
2022/06/07 08:00:23;;;;;;;5.90;1.00;;;;;;;22.26;62.46;100085.89;107526;1271;22576;-79
2022/06/07 08:02:55;;;;;;;7.40;1.00;;;;;;;22.32;62.73;100083.81;107501;1271;22538;-80
2022/06/07 08:05:27;;;;;;;8.30;1.20;;;;;;;22.43;62.21;100086.23;107403;1271;24931;-80
2022/06/07 08:07:59;;;;;;;5.50;1.00;;;;;;;22.50;62.05;100084.29;107377;1270;22689;-80
2022/06/07 08:10:40;;;;;;;3.90;1.00;;;;;;;22.57;61.03;100083.46;107219;1271;22534;-80
2022/06/07 08:13:11;;;;;;;5.00;0.80;;;;;;;22.59;60.36;100085.63;107035;1271;22623;-80
2022/06/07 08:15:42;;;;;;;5.40;1.30;;;;;;;22.61;60.22;100084.45;107250;1270;22549;-80
2022/06/07 08:18:14;;;;;;;6.80;1.30;;;;;;;22.62;59.82;100083.88;107257;1271;25395;-79
2022/06/07 08:20:46;;;;;;;6.80;1.00;;;;;;;22.60;59.37;100088.30;107225;1271;22552;-79
2022/06/07 08:23:18;;;;;;;6.40;1.10;;;;;;;22.57;59.72;100082.59;103113;1271;5500105;-79
2022/06/07 08:25:49;;;;;;;5.40;1.00;;;;;;;22.61;59.96;100078.33;107057;1270;22548;-79
2022/06/07 08:28:22;;;;;;;4.50;1.30;;;;;;;22.68;60.03;100078.23;107250;1270;22589;-79
2022/06/07 08:30:55;;;;;;;4.80;1.00;;;;;;;22.73;59.94;100076.06;107107;1270;22538;-79
2022/06/07 08:39:08;;;;;;;4.10;1.10;;;;;;;22.69;58.71;100078.69;107218;1271;22547;-79
2022/06/07 08:41:46;;;;;;;3.30;1.10;;;;;;;22.67;58.77;100074.89;107189;1271;22524;-79
2022/06/07 08:44:22;;;;;;;5.90;1.30;;;;;;;22.66;58.74;100072.16;107182;1271;25595;-79
2022/06/07 08:46:56;;;;;;;5.90;1.40;;;;;;;22.72;58.60;100071.17;107063;1271;22532;-80
2022/06/07 08:49:28;;;;;;;8.80;1.20;;;;;;;22.75;58.08;100072.85;107313;1271;22531;-79
2022/06/07 08:52:09;;;;;;;5.20;1.30;;;;;;;22.72;58.17;100068.02;107220;1271;25255;-79
2022/06/07 08:54:42;;;;;;;5.30;1.20;;;;;;;22.78;58.65;100062.90;107209;1270;22765;-79
2022/06/07 08:57:20;;;;;;;4.20;0.90;;;;;;;22.92;58.06;100065.77;107284;1270;25495;-79
2022/06/07 08:59:56;;;;;;;6.20;1.20;;;;;;;23.00;57.26;100065.30;107219;1270;22495;-79
2022/06/07 09:02:47;;;;;;;5.00;0.90;;;;;;;23.08;57.01;100062.98;107284;1271;22572;-79
2022/06/07 09:05:19;;;;;;;8.70;1.20;;;;;;;23.20;56.97;100056.70;107330;1271;22713;-80
2022/06/07 09:07:51;;;;;;;3.60;1.00;;;;;;;23.35;56.35;100056.39;107364;1271;22713;-80
2022/06/07 09:13:21;;;;;;;6.40;0.90;;;;;;;23.50;53.73;100054.24;107240;1271;22887;-80
2022/06/07 09:15:56;;;;;;;5.00;0.80;;;;;;;23.44;53.76;100048.04;107236;1270;22537;-79
2022/06/07 09:18:30;;;;;;;5.30;0.50;;;;;;;23.50;53.32;100046.84;107410;1271;22468;-80
2022/06/07 09:21:09;;;;;;;3.40;0.70;;;;;;;23.54;51.95;100045.23;107307;1270;24090;-80
2022/06/07 09:23:48;;;;;;;6.70;0.70;;;;;;;23.55;51.68;100045.26;107312;1271;22559;-80
2022/06/07 09:26:30;;;;;;;1.70;0.40;;;;;;;23.58;50.75;100045.15;107282;1271;22551;-80
2022/06/07 09:29:14;;;;;;;4.10;0.70;;;;;;;23.60;50.49;100043.39;107280;1270;22689;-80
2022/06/07 09:31:47;;;;;;;1.90;0.50;;;;;;;23.68;49.96;100037.77;107339;1271;24085;-80
2022/06/07 09:34:25;;;;;;;4.90;0.50;;;;;;;23.77;50.18;100034.80;107242;1271;22536;-79
2022/06/07 09:37:03;;;;;;;5.00;0.70;;;;;;;23.85;48.62;100030.98;107219;1271;22538;-80
2022/06/07 09:39:37;;;;;;;2.10;0.50;;;;;;;23.81;48.59;100026.02;107537;1269;22709;-79
2022/06/07 09:42:18;;;;;;;5.40;0.60;;;;;;;23.74;47.81;100024.98;107533;1270;25219;-79
2022/06/07 09:45:02;;;;;;;3.10;0.70;;;;;;;23.71;47.95;100030.69;107174;1270;24222;-80
2022/06/07 09:47:35;;;;;;;2.10;0.60;;;;;;;23.74;48.51;100022.13;107339;1271;22583;-81
2022/06/07 09:50:19;;;;;;;4.60;1.10;;;;;;;23.78;48.18;100020.92;107327;1270;23259;-80
2022/06/07 09:52:54;;;;;;;4.70;1.00;;;;;;;23.80;48.22;100014.13;107185;1271;23888;-80
2022/06/07 09:55:33;;;;;;;2.20;0.70;;;;;;;23.81;48.20;100013.36;107179;1271;22717;-80
2022/06/07 09:58:35;;;;;;;3.40;0.90;;;;;;;23.87;48.59;100011.47;107485;1271;23986;-80
2022/06/07 10:01:13;;;;;;;5.00;1.10;;;;;;;23.87;48.66;100010.29;107378;1271;23193;-81
2022/06/07 10:03:52;;;;;;;3.20;0.90;;;;;;;23.91;48.96;100007.69;107215;1271;22612;-80
2022/06/07 10:06:28;;;;;;;3.90;1.00;;;;;;;23.88;48.82;100002.54;107257;1271;22567;-80
2022/06/07 10:09:16;;;;;;;6.30;1.00;;;;;;;23.88;48.70;99999.59;107189;1271;22468;-80
2022/06/07 10:11:56;;;;;;;2.90;0.80;;;;;;;23.96;48.71;99998.15;107195;1271;22563;-79
2022/06/07 10:14:41;;;;;;;3.30;0.90;;;;;;;24.07;48.67;99993.71;107386;1271;22527;-80
2022/06/07 10:17:45;;;;;;;5.80;0.80;;;;;;;24.16;47.92;99990.39;107259;1271;22543;-80
2022/06/07 10:20:29;;;;;;;6.90;1.00;;;;;;;24.25;48.12;99993.03;107092;1271;22804;-80
2022/06/07 10:23:26;;;;;;;2.40;0.90;;;;;;;24.29;48.35;99994.41;107071;1271;25328;-80
2022/06/07 10:26:12;;;;;;;3.20;0.90;;;;;;;24.23;47.73;99995.56;107327;1271;22540;-80
2022/06/07 10:28:55;;;;;;;3.20;0.80;;;;;;;24.20;48.10;99991.85;107153;1271;25322;-80
2022/06/07 10:31:39;;;;;;;4.90;1.00;;;;;;;24.18;46.71;99997.38;107068;1271;22688;-80
2022/06/07 10:34:24;;;;;;;4.30;0.80;;;;;;;24.08;47.29;99994.02;107170;1271;25940;-80
2022/06/07 10:37:04;;;;;;;5.00;1.00;;;;;;;24.11;47.78;99993.34;106998;1271;24214;-79
2022/06/07 10:39:39;;;;;;;;;;;;;;;24.16;47.42;99995.34;107157;1271;22526;-79
2022/06/07 10:42:28;;;;;;;2.00;0.70;;;;;;;24.20;47.64;99993.25;107039;1271;25204;-80
2022/06/07 10:45:10;;;;;;;7.40;2.10;;;;;;;24.24;47.45;99989.92;106948;1271;22528;-80
2022/06/07 10:47:50;;;;;;;2.50;0.90;;;;;;;24.28;46.93;99986.89;107050;1271;22612;-80
2022/06/07 10:50:27;;;;;;;4.30;0.90;;;;;;;24.30;47.13;99991.92;107122;1271;22548;-80
2022/06/07 10:53:08;;;;;;;4.70;0.90;;;;;;;24.37;47.48;99989.41;107085;1271;22535;-80
2022/06/07 10:55:45;;;;;;;9.60;1.20;;;;;;;24.45;47.39;99981.94;106946;1271;25251;-80
2022/06/07 10:58:31;;;;;;;2.20;0.80;;;;;;;24.49;47.15;99980.68;107295;1271;22591;-80
2022/06/07 11:01:08;;;;;;;4.10;1.00;;;;;;;24.62;46.71;99977.96;106966;1270;22580;-80
2022/06/07 11:04:02;;;;;;;6.50;0.90;;;;;;;24.72;46.44;99972.62;106992;1271;22481;-80
2022/06/07 11:09:43;;;;;;;4.00;0.80;;;;;;;24.78;46.02;99972.67;107098;1271;23307;-80
2022/06/07 11:12:17;;;;;;;3.50;0.70;;;;;;;24.81;45.93;99970.51;107100;1271;22639;-80
2022/06/07 11:15:15;;;;;;;2.00;0.80;;;;;;;24.80;45.54;99967.01;107049;1271;22638;-79
2022/06/07 11:17:51;;;;;;;3.90;1.10;;;;;;;24.70;45.53;99965.25;107100;1271;22715;-80
2022/06/07 11:20:25;;;;;;;4.00;1.10;;;;;;;24.68;45.74;99962.91;107211;1271;22527;-80
2022/06/07 11:23:07;;;;;;;3.70;0.80;;;;;;;24.65;45.30;99969.70;107159;1271;23299;-80
2022/06/07 11:25:41;;;;;;;2.90;0.70;;;;;;;24.64;45.65;99969.02;107085;1271;25468;-80
2022/06/07 11:28:19;;;;;;;2.40;0.80;;;;;;;24.65;45.64;99971.53;107058;1271;25374;-80
2022/06/07 11:30:53;;;;;;;2.70;0.80;;;;;;;24.64;45.61;99973.74;107175;1271;24227;-80
2022/06/07 11:34:12;;;;;;;4.20;0.90;;;;;;;24.63;45.58;99974.36;107120;1271;22597;-80
2022/06/07 11:36:44;;;;;;;3.50;0.70;;;;;;;24.60;45.08;99970.09;107107;1271;22604;-80
2022/06/07 11:39:51;;;;;;;3.40;0.80;;;;;;;24.58;45.38;99970.83;107191;1270;22679;-80
2022/06/07 11:42:33;;;;;;;4.00;0.90;;;;;;;24.56;45.44;99968.75;106899;1271;22586;-80
2022/06/07 11:45:24;;;;;;;5.10;1.10;;;;;;;24.55;45.27;99962.94;107286;1272;22536;-80
2022/06/07 11:48:24;;;;;;;3.10;0.80;;;;;;;24.51;45.41;99962.17;107316;1271;25292;-80
2022/06/07 11:51:17;;;;;;;2.50;0.70;;;;;;;24.46;45.16;99969.89;106488;1277;22560;-79
2022/06/07 11:54:01;;;;;;;3.70;0.80;;;;;;;24.38;44.98;99970.75;106775;1277;22859;-81
2022/06/07 11:56:44;;;;;;;2.10;0.70;;;;;;;24.35;45.03;99972.69;106835;1278;23189;-80
2022/06/07 11:59:35;;;;;;;3.00;0.80;;;;;;;24.34;45.18;99970.90;106471;1277;23511;-80
2022/06/07 12:02:29;;;;;;;2.80;0.70;;;;;;;24.33;44.84;99969.77;106437;1277;24495;-79
2022/06/07 12:05:26;;;;;;;8.50;0.70;;;;;;;24.28;44.53;99968.17;106442;1277;24834;-80
2022/06/07 12:08:02;;;;;;;2.90;0.70;;;;;;;24.20;43.82;99968.80;106507;1277;22632;-79
2022/06/07 12:10:38;;;;;;;3.00;0.50;;;;;;;24.11;44.00;99968.98;106589;1277;22670;-80
2022/06/07 12:13:49;;;;;;;1.90;0.60;;;;;;;24.03;44.04;99969.17;106411;1276;24251;-80